Time;durP1;ratioP1;P1;durP2;ratioP2;P2;SDS_P1;SDS_P2;PMS_P1;PMS_P2;Temp;Humidity;BMP_temperature;BMP_pressure;BME280_temperature;BME280_humidity;BME280_pressure;Samples;Min_cycle;Max_cycle;Signal;HPM_P1;HPM_P2
2023/12/07 05:30:28;;;;;;;;;24.00;17.25;;;;;15.35;43.98;101291.34;5027855;28;46441;-73
2023/12/07 05:32:53;;;;;;;;;19.00;19.00;;;;;15.33;43.77;101309.47;4996993;28;45375;-73
2023/12/07 05:35:19;;;;;;;;;24.50;23.25;;;;;15.12;43.86;101318.78;4997393;28;45286;-75
2023/12/07 05:37:44;;;;;;;;;23.00;22.25;;;;;15.04;44.20;101310.25;4997132;28;45444;-73
2023/12/07 05:40:12;;;;;;;;;22.50;20.75;;;;;15.05;44.16;101322.78;5001934;28;46042;-73
2023/12/07 05:42:37;;;;;;;;;18.50;18.00;;;;;14.99;44.23;101323.97;5000079;28;45337;-75
2023/12/07 05:45:03;;;;;;;;;15.00;13.00;;;;;15.01;44.51;101326.59;4997373;28;45561;-76
2023/12/07 05:47:28;;;;;;;;;21.75;18.75;;;;;15.02;44.29;101317.53;4996925;28;45519;-74
2023/12/07 05:49:53;;;;;;;;;21.50;21.25;;;;;14.99;43.98;101293.41;4996517;28;67772;-75
2023/12/07 05:52:19;;;;;;;;;22.25;21.00;;;;;15.11;44.16;101299.00;4979287;28;45371;-74
2023/12/07 05:54:46;;;;;;;;;22.75;20.75;;;;;15.15;44.21;101311.38;4996887;28;45321;-76
2023/12/07 05:57:12;;;;;;;;;19.25;19.25;;;;;15.10;43.92;101309.91;4996470;28;45535;-75
2023/12/07 05:59:38;;;;;;;;;12.25;11.25;;;;;15.01;44.10;101307.69;4996926;28;46317;-74
2023/12/07 06:02:04;;;;;;;;;22.50;18.50;;;;;14.96;44.05;101288.19;4996595;28;45330;-74
2023/12/07 06:04:30;;;;;;;;;20.25;17.75;;;;;14.97;44.21;101292.63;4997149;28;45405;-74
2023/12/07 06:06:55;;;;;;;;;19.50;16.25;;;;;14.95;43.94;101306.22;4996780;28;45545;-74
2023/12/07 06:09:20;;;;;;;;;20.00;16.50;;;;;14.87;43.98;101304.91;4996936;28;45331;-76
2023/12/07 06:11:46;;;;;;;;;21.00;19.00;;;;;14.85;44.32;101312.19;4996636;28;45242;-74
2023/12/07 06:14:11;;;;;;;;;19.75;18.75;;;;;14.80;44.17;101307.03;4996561;28;45310;-75
2023/12/07 06:16:36;;;;;;;;;19.50;18.50;;;;;14.85;44.03;101310.38;4996670;28;45318;-74
2023/12/07 06:19:02;;;;;;;;;27.00;19.25;;;;;14.90;44.52;101310.09;4996771;28;45962;-74
2023/12/07 06:21:29;;;;;;;;;26.75;22.25;;;;;14.95;44.01;101313.44;4996622;28;45399;-74
2023/12/07 06:23:55;;;;;;;;;23.75;19.50;;;;;14.89;44.08;101302.97;4996901;28;45191;-74
2023/12/07 06:26:20;;;;;;;;;21.50;19.50;;;;;14.83;44.14;101281.72;4996221;28;45588;-74
2023/12/07 06:28:45;;;;;;;;;24.00;22.25;;;;;14.86;44.39;101270.75;4996119;28;45455;-76
2023/12/07 06:31:12;;;;;;;;;26.00;22.00;;;;;14.93;44.12;101264.06;5005208;28;45356;-77
2023/12/07 06:33:37;;;;;;;;;18.00;17.25;;;;;15.09;44.01;101270.34;5016457;28;45354;-74
2023/12/07 06:36:03;;;;;;;;;19.00;16.75;;;;;15.14;43.71;101260.16;4998537;28;45900;-74
2023/12/07 06:38:28;;;;;;;;;19.50;16.50;;;;;15.11;43.41;101250.41;5016337;28;45367;-75
2023/12/07 06:40:54;;;;;;;;;21.75;19.50;;;;;15.23;43.57;101262.31;5024784;28;45479;-75
2023/12/07 06:43:19;;;;;;;;;21.00;17.50;;;;;15.13;43.75;101240.38;5016014;28;45352;-76
2023/12/07 06:45:46;;;;;;;;;21.00;16.50;;;;;15.06;43.58;101222.75;5015978;28;45363;-74
2023/12/07 06:48:11;;;;;;;;;17.00;16.25;;;;;15.17;43.48;101234.78;5015962;28;46049;-75
2023/12/07 06:50:37;;;;;;;;;27.50;21.75;;;;;15.29;43.73;101244.91;4998135;28;45492;-76
2023/12/07 06:53:02;;;;;;;;;21.00;18.50;;;;;15.32;43.39;101229.38;5016016;28;45967;-75
2023/12/07 06:55:28;;;;;;;;;24.50;20.00;;;;;15.36;43.49;101239.06;5015725;28;45557;-76
2023/12/07 06:57:53;;;;;;;;;19.50;19.50;;;;;15.28;43.18;101230.53;5015559;28;45540;-75
2023/12/07 07:00:19;;;;;;;;;25.75;20.50;;;;;15.21;43.62;101237.25;5015730;28;45368;-77
2023/12/07 07:02:45;;;;;;;;;18.00;15.75;;;;;15.02;43.90;101245.50;4998034;28;45484;-75
2023/12/07 07:05:11;;;;;;;;;24.00;21.00;;;;;14.93;44.03;101234.34;5014915;28;45324;-76
2023/12/07 07:07:37;;;;;;;;;16.25;15.50;;;;;14.92;44.13;101227.22;5015258;28;46161;-75
2023/12/07 07:10:02;;;;;;;;;18.50;16.00;;;;;14.91;43.97;101211.97;5015435;28;45491;-74
2023/12/07 07:12:29;;;;;;;;;25.00;20.00;;;;;15.04;43.79;101232.81;5015813;28;45349;-76
2023/12/07 07:14:54;;;;;;;;;23.75;16.50;;;;;15.00;43.70;101230.34;5015942;28;45592;-77
2023/12/07 07:17:20;;;;;;;;;20.00;20.00;;;;;15.02;43.88;101248.22;5015614;28;45979;-75
2023/12/07 07:19:45;;;;;;;;;18.50;17.50;;;;;14.87;43.98;101213.97;4999423;28;45451;-76
2023/12/07 07:22:11;;;;;;;;;23.50;21.00;;;;;15.07;43.70;101250.63;5024445;28;45400;-78
2023/12/07 07:24:36;;;;;;;;;17.50;15.00;;;;;15.06;43.67;101252.47;5004646;28;45805;-78
2023/12/07 07:27:02;;;;;;;;;18.50;17.75;;;;;15.07;43.93;101251.50;5024035;28;46276;-77
2023/12/07 07:29:28;;;;;;;;;19.75;18.00;;;;;15.10;43.96;101256.75;4997487;28;45456;-78
2023/12/07 07:31:53;;;;;;;;;24.75;17.25;;;;;14.99;44.05;101264.56;5014809;28;45407;-78
2023/12/07 07:34:19;;;;;;;;;19.00;15.75;;;;;15.02;43.95;101261.72;4997536;28;45656;-76
2023/12/07 07:36:44;;;;;;;;;18.50;16.75;;;;;15.03;43.81;101273.38;5015479;28;45959;-77
2023/12/07 07:39:11;;;;;;;;;21.50;16.25;;;;;15.05;43.68;101260.69;5015436;28;45329;-77
2023/12/07 07:41:36;;;;;;;;;17.50;16.50;;;;;15.10;43.89;101253.19;5005657;28;45445;-78
2023/12/07 07:44:02;;;;;;;;;18.25;15.75;;;;;15.12;43.94;101260.25;5015105;28;45329;-77
2023/12/07 07:46:28;;;;;;;;;19.00;19.00;;;;;14.98;43.55;101254.72;5012966;28;45395;-79
2023/12/07 07:48:54;;;;;;;;;17.00;15.25;;;;;15.03;44.01;101249.97;5013141;28;46446;-76
2023/12/07 07:51:20;;;;;;;;;19.50;17.75;;;;;15.12;43.99;101232.38;5015675;28;45486;-78
2023/12/07 07:53:45;;;;;;;;;20.00;18.50;;;;;15.08;43.75;101225.38;4997159;28;45386;-76
2023/12/07 07:56:11;;;;;;;;;18.00;15.00;;;;;15.19;43.52;101222.06;5001114;28;47236;-77
2023/12/07 07:58:36;;;;;;;;;17.75;15.00;;;;;15.24;43.27;101218.13;5015563;28;45377;-75
2023/12/07 08:01:02;;;;;;;;;17.50;16.25;;;;;15.28;43.48;101229.66;5014665;28;45478;-75
2023/12/07 08:03:27;;;;;;;;;15.75;14.50;;;;;15.29;43.08;101231.41;5015004;28;45411;-74
2023/12/07 08:05:52;;;;;;;;;19.50;19.50;;;;;15.20;43.25;101213.03;5014835;28;45325;-76
2023/12/07 08:08:18;;;;;;;;;22.50;21.25;;;;;15.28;43.58;101208.91;5014269;28;45328;-75
2023/12/07 08:10:44;;;;;;;;;17.50;15.00;;;;;15.41;43.16;101206.34;5015156;28;45340;-76
2023/12/07 08:13:09;;;;;;;;;21.75;17.00;;;;;15.48;42.81;101207.75;4996553;28;47318;-79
2023/12/07 08:15:35;;;;;;;;;13.00;13.00;;;;;15.49;42.93;101190.56;5014805;28;45987;-76
2023/12/07 08:18:00;;;;;;;;;21.50;16.50;;;;;15.60;42.85;101207.06;4996301;28;45410;-78
2023/12/07 08:20:26;;;;;;;;;18.00;16.75;;;;;15.57;42.39;101199.13;5014449;28;45787;-75
2023/12/07 08:22:51;;;;;;;;;17.00;13.75;;;;;15.42;42.67;101181.94;4996923;28;45545;-76
2023/12/07 08:25:17;;;;;;;;;18.50;17.00;;;;;15.32;42.54;101169.94;5014739;28;45260;-76
2023/12/07 08:27:44;;;;;;;;;15.50;15.00;;;;;15.35;42.64;101185.97;4996482;28;45486;-76
2023/12/07 08:30:10;;;;;;;;;15.50;15.50;;;;;15.29;42.65;101175.53;5014836;28;45455;-77
2023/12/07 08:32:36;;;;;;;;;18.25;17.00;;;;;15.32;42.54;101169.94;5014228;28;45543;-77
2023/12/07 08:35:02;;;;;;;;;22.50;20.50;;;;;15.36;42.71;101167.94;5014747;28;46343;-78
2023/12/07 08:37:28;;;;;;;;;16.50;16.50;;;;;15.35;42.78;101163.50;4996728;28;45443;-76
2023/12/07 08:39:54;;;;;;;;;20.50;16.75;;;;;15.28;42.65;101154.88;4999351;28;45506;-76
2023/12/07 08:42:19;;;;;;;;;20.75;18.75;;;;;15.26;42.56;101154.09;5018934;28;45364;-76
2023/12/07 08:44:45;;;;;;;;;18.75;17.25;;;;;15.04;42.59;101154.50;4996763;28;48052;-78
2023/12/07 08:47:10;;;;;;;;;13.75;13.75;;;;;14.99;42.95;101161.97;5014412;28;45352;-79
2023/12/07 08:49:36;;;;;;;;;19.25;17.75;;;;;15.07;42.87;101177.72;5014679;28;45449;-76
2023/12/07 08:52:02;;;;;;;;;18.75;16.00;;;;;15.00;43.18;101179.91;5014041;28;45452;-78
2023/12/07 08:54:27;;;;;;;;;14.00;11.00;;;;;14.93;43.11;101166.88;5014716;28;45437;-77
2023/12/07 08:56:53;;;;;;;;;20.00;17.75;;;;;14.92;43.19;101162.41;5013874;28;45421;-77
2023/12/07 08:59:18;;;;;;;;;23.25;22.00;;;;;14.93;43.24;101140.72;4996576;28;45811;-77
2023/12/07 09:01:43;;;;;;;;;19.00;15.25;;;;;15.07;42.87;101139.94;5013729;28;45555;-78
2023/12/07 09:04:09;;;;;;;;;16.75;15.75;;;;;15.02;42.93;101117.72;5013540;28;45428;-76
2023/12/07 09:06:36;;;;;;;;;17.50;12.75;;;;;15.12;42.48;101119.81;5029425;28;45351;-77
2023/12/07 09:09:02;;;;;;;;;16.25;13.00;;;;;15.14;42.71;101146.75;4980350;28;45371;-78
2023/12/07 09:11:27;;;;;;;;;16.25;14.25;;;;;15.16;42.69;101142.09;5014060;28;45278;-77
2023/12/07 09:13:53;;;;;;;;;14.75;14.75;;;;;15.08;42.60;101141.66;5013969;28;45290;-75
2023/12/07 09:16:18;;;;;;;;;15.00;14.00;;;;;15.19;42.83;101131.13;4996180;28;45273;-76
2023/12/07 09:18:46;;;;;;;;;16.25;15.00;;;;;15.09;42.50;101111.00;5014220;28;46014;-77
2023/12/07 09:21:11;;;;;;;;;18.50;16.25;;;;;15.23;42.29;101119.16;5013426;28;45443;-77
2023/12/07 09:23:38;;;;;;;;;16.75;12.50;;;;;15.18;42.46;101096.97;5013154;28;48093;-76
2023/12/07 09:26:07;;;;;;;;;15.25;14.75;;;;;15.27;42.44;101109.94;5014109;28;45368;-76
2023/12/07 09:28:33;;;;;;;;;15.50;14.50;;;;;15.35;42.17;101093.25;5022512;28;45396;-77
2023/12/07 09:30:58;;;;;;;;;14.00;11.00;;;;;15.47;42.18;101093.41;5016845;28;45345;-78
2023/12/07 09:33:24;;;;;;;;;15.00;13.25;;;;;15.57;41.70;101088.31;5017045;28;45416;-77
2023/12/07 09:35:49;;;;;;;;;18.75;15.25;;;;;15.65;41.46;101093.28;5017255;28;45334;-77
2023/12/07 09:38:15;;;;;;;;;13.00;12.50;;;;;15.58;41.52;101084.66;5017297;28;45474;-79
2023/12/07 09:40:40;;;;;;;;;13.00;13.00;;;;;15.59;41.14;101090.94;5024973;28;45532;-76
2023/12/07 09:43:06;;;;;;;;;10.00;9.50;;;;;15.67;41.06;101099.44;5016709;28;46424;-76
2023/12/07 09:45:32;;;;;;;;;8.75;8.75;;;;;15.63;41.47;101084.38;5017141;28;45371;-76
2023/12/07 09:47:58;;;;;;;;;14.25;14.25;;;;;15.57;41.05;101073.97;5017263;28;45206;-77
2023/12/07 09:50:27;;;;;;;;;8.00;7.00;;;;;15.57;41.21;101072.09;5016665;28;45452;-77
2023/12/07 09:52:56;;;;;;;;;13.75;13.75;;;;;15.67;41.21;101075.97;4999073;28;48194;-76
2023/12/07 09:55:22;;;;;;;;;15.75;15.25;;;;;15.69;40.91;101068.66;4998960;28;45431;-76
2023/12/07 09:57:49;;;;;;;;;13.50;12.00;;;;;15.66;40.77;101049.91;5016815;28;45381;-77
2023/12/07 10:00:15;;;;;;;;;8.25;7.50;;;;;15.76;40.83;101059.19;5017066;28;45260;-76
2023/12/07 10:02:42;;;;;;;;;14.50;12.75;;;;;15.81;40.40;101048.09;4999449;28;46651;-77
2023/12/07 10:05:16;;;;;;;;;17.50;16.00;;;;;15.76;40.71;101039.41;5016334;28;45411;-77
2023/12/07 10:07:50;;;;;;;;;12.50;12.25;;;;;15.72;40.50;101027.06;5017542;28;45434;-76
2023/12/07 10:10:17;;;;;;;;;13.50;12.25;;;;;15.80;40.75;101024.75;5016625;28;45238;-77
2023/12/07 10:12:51;;;;;;;;;15.00;12.75;;;;;15.66;40.59;101009.38;5017251;28;45538;-75
2023/12/07 10:15:18;;;;;;;;;15.50;13.75;;;;;15.68;40.99;101010.16;5016496;28;45408;-77
2023/12/07 10:18:03;;;;;;;;;10.75;8.00;;;;;15.83;40.66;101009.16;5016475;28;45495;-76
2023/12/07 10:20:29;;;;;;;;;21.25;20.25;;;;;15.74;40.22;100984.56;5016105;28;45170;-77
2023/12/07 10:23:04;;;;;;;;;17.50;14.75;;;;;15.83;39.92;101008.31;4998651;28;46735;-76
2023/12/07 10:25:37;;;;;;;;;16.50;12.00;;;;;15.59;40.53;100988.22;5016737;28;45621;-76
2023/12/07 10:28:07;;;;;;;;;13.00;13.00;;;;;15.78;40.68;101008.59;5016381;28;45346;-76
2023/12/07 10:30:36;;;;;;;;;11.50;10.25;;;;;15.81;40.32;100994.03;4998608;28;47146;-76
2023/12/07 10:33:07;;;;;;;;;14.25;13.00;;;;;15.90;40.51;100990.75;5016326;28;46234;-76
2023/12/07 10:35:32;;;;;;;;;16.25;13.00;;;;;15.85;40.51;100987.44;4998630;28;45399;-75
2023/12/07 10:37:58;;;;;;;;;13.00;12.00;;;;;15.77;40.44;100987.06;5016262;28;45482;-77
2023/12/07 10:40:23;;;;;;;;;11.00;11.00;;;;;15.77;40.36;100981.66;5005014;28;46044;-77
2023/12/07 10:42:52;;;;;;;;;12.50;11.00;;;;;15.68;40.29;100961.50;4999555;28;48138;-75
2023/12/07 10:45:21;;;;;;;;;10.00;10.00;;;;;15.67;40.60;100965.16;4999190;28;45351;-76
2023/12/07 10:47:47;;;;;;;;;10.00;10.00;;;;;15.75;40.16;100960.13;4998652;28;45442;-76
2023/12/07 10:50:18;;;;;;;;;11.00;11.00;;;;;15.73;40.22;100970.19;5015948;28;45350;-76
2023/12/07 10:52:51;;;;;;;;;10.50;9.50;;;;;15.51;40.27;100935.50;5015909;28;45290;-76
2023/12/07 10:55:19;;;;;;;;;12.75;11.75;;;;;15.65;40.09;100958.13;5016110;28;45353;-77
2023/12/07 10:57:46;;;;;;;;;10.50;10.50;;;;;15.70;40.15;100975.78;5015754;28;45285;-75
2023/12/07 11:00:13;;;;;;;;;13.25;11.50;;;;;15.57;40.26;100946.94;4998116;28;46186;-75
2023/12/07 11:02:41;;;;;;;;;16.75;13.00;;;;;15.69;40.26;100936.22;5015978;28;46602;-76
2023/12/07 11:05:06;;;;;;;;;9.75;9.75;;;;;15.66;40.32;100925.59;5014994;28;45383;-76
2023/12/07 11:08:03;;;;;;;;;13.25;13.25;;;;;15.77;40.29;100924.91;4998691;28;45335;-76
2023/12/07 11:10:43;;;;;;;;;14.00;14.00;;;;;15.86;40.29;100916.19;4996195;28;45467;-76
2023/12/07 11:13:22;;;;;;;;;14.75;14.75;;;;;15.83;40.38;100910.97;5015329;28;45506;-76
2023/12/07 11:15:48;;;;;;;;;16.00;13.25;;;;;15.65;40.33;100907.63;4997804;28;46201;-74
2023/12/07 11:18:13;;;;;;;;;12.00;11.00;;;;;15.52;40.17;100858.88;4997964;28;45359;-75
2023/12/07 11:20:44;;;;;;;;;14.00;13.00;;;;;15.77;39.97;100889.75;5015252;28;45234;-76
2023/12/07 11:23:10;;;;;;;;;14.25;14.25;;;;;15.91;40.53;100884.31;5015544;28;45413;-76
2023/12/07 11:25:37;;;;;;;;;13.50;10.50;;;;;15.99;40.44;100875.72;5015446;28;45408;-76
2023/12/07 11:28:04;;;;;;;;;14.75;13.00;;;;;16.05;40.09;100892.41;5015236;28;45349;-76
2023/12/07 11:30:36;;;;;;;;;13.75;12.75;;;;;15.98;40.37;100882.97;4996885;28;47632;-77
2023/12/07 11:33:04;;;;;;;;;12.25;8.00;;;;;16.00;39.87;100863.91;5014986;28;48191;-77
2023/12/07 11:35:29;;;;;;;;;16.75;13.75;;;;;16.06;40.15;100875.19;4997281;28;45372;-78
2023/12/07 11:38:08;;;;;;;;;14.25;14.25;;;;;16.15;39.95;100879.13;4997423;28;45435;-76
2023/12/07 11:40:43;;;;;;;;;13.25;10.25;;;;;16.06;39.86;100868.94;5005082;28;46333;-77
2023/12/07 11:43:30;;;;;;;;;14.00;12.25;;;;;16.09;40.14;100864.16;5015143;28;46539;-77
2023/12/07 11:45:55;;;;;;;;;20.00;17.25;;;;;16.11;39.46;100869.47;4997557;28;45483;-78
2023/12/07 11:48:22;;;;;;;;;13.25;13.25;;;;;16.07;39.70;100866.13;4997633;28;45385;-77
2023/12/07 11:50:55;;;;;;;;;12.00;12.00;;;;;16.06;39.83;100856.28;4997313;28;46596;-78
2023/12/07 11:53:31;;;;;;;;;11.25;9.75;;;;;16.01;40.01;100847.56;4996570;28;47246;-78
2023/12/07 11:56:11;;;;;;;;;14.00;14.00;;;;;16.06;40.53;100837.34;5014101;28;45459;-78
2023/12/07 11:58:37;;;;;;;;;14.75;14.75;;;;;16.08;39.96;100824.56;5008404;28;45444;-77
2023/12/07 12:01:04;;;;;;;;;15.00;14.00;;;;;16.10;39.98;100828.03;4997091;28;46587;-77
2023/12/07 12:03:32;;;;;;;;;9.50;9.50;;;;;16.08;40.24;100821.84;5000840;28;46347;-75
2023/12/07 12:05:57;;;;;;;;;15.25;13.50;;;;;16.15;40.27;100823.19;5014926;28;45386;-77
2023/12/07 12:08:23;;;;;;;;;13.00;12.50;;;;;16.04;40.29;100823.03;5014867;28;45220;-77
2023/12/07 12:10:56;;;;;;;;;11.25;11.25;;;;;16.12;40.26;100825.22;5015136;28;45560;-76
2023/12/07 12:13:27;;;;;;;;;12.00;9.00;;;;;16.12;40.57;100812.56;5014343;28;46193;-78
2023/12/07 12:15:53;;;;;;;;;15.50;14.25;;;;;16.27;39.83;100814.22;5005581;28;45207;-78
2023/12/07 12:18:18;;;;;;;;;14.00;12.00;;;;;16.30;39.82;100804.19;5015206;28;45437;-76
2023/12/07 12:20:45;;;;;;;;;14.00;13.00;;;;;16.31;39.91;100814.03;5014632;28;45381;-75
2023/12/07 12:23:10;;;;;;;;;13.75;13.75;;;;;16.21;40.07;100811.94;5014675;28;46437;-77
2023/12/07 12:25:36;;;;;;;;;7.25;7.25;;;;;16.18;39.82;100812.16;5014837;28;45339;-77
2023/12/07 12:28:04;;;;;;;;;13.50;13.50;;;;;15.77;39.96;100781.63;5014307;28;45297;-76
2023/12/07 12:30:30;;;;;;;;;14.50;12.25;;;;;15.98;40.03;100780.19;5014341;28;46147;-77
2023/12/07 12:32:57;;;;;;;;;10.25;8.50;;;;;16.08;39.73;100751.53;5014479;28;45280;-75
2023/12/07 12:35:22;;;;;;;;;14.25;12.75;;;;;16.18;40.01;100763.47;5014628;28;45471;-75
2023/12/07 12:37:49;;;;;;;;;13.25;13.25;;;;;16.01;39.79;100736.72;5014684;28;45323;-76
2023/12/07 12:40:19;;;;;;;;;12.50;11.25;;;;;16.13;40.05;100729.59;5001642;28;47165;-75
2023/12/07 12:42:47;;;;;;;;;16.50;15.00;;;;;16.40;39.70;100734.94;5016337;28;45477;-73
2023/12/07 12:45:19;;;;;;;;;13.25;12.25;;;;;16.30;39.95;100725.72;4996681;28;45333;-75
2023/12/07 12:47:46;;;;;;;;;11.75;11.75;;;;;16.45;39.49;100736.31;4996476;28;45300;-73
2023/12/07 12:50:32;;;;;;;;;10.00;8.25;;;;;16.34;39.49;100719.09;4996555;28;46526;-75
2023/12/07 12:52:59;;;;;;;;;12.25;12.25;;;;;16.40;39.64;100721.41;5014445;28;45345;-75
2023/12/07 12:55:30;;;;;;;;;14.25;13.00;;;;;16.34;39.79;100692.91;5014382;28;45522;-76
2023/12/07 12:57:56;;;;;;;;;12.50;9.50;;;;;16.48;40.01;100709.06;5017623;28;45294;-76
2023/12/07 13:00:21;;;;;;;;;9.00;9.00;;;;;16.50;39.37;100696.25;5000488;28;45283;-78
2023/12/07 13:02:47;;;;;;;;;9.75;9.75;;;;;16.66;39.90;100690.69;5018098;28;45336;-77
2023/12/07 13:05:12;;;;;;;;;11.50;9.75;;;;;16.80;39.76;100690.53;5019607;28;45253;-77
2023/12/07 13:07:37;;;;;;;;;14.00;12.25;;;;;16.85;39.40;100674.81;5018465;28;45847;-77
2023/12/07 13:10:03;;;;;;;;;12.50;8.75;;;;;16.86;39.25;100656.72;5000422;28;46141;-75
2023/12/07 13:12:30;;;;;;;;;11.50;9.00;;;;;16.83;39.51;100647.00;4999996;28;47399;-75
2023/12/07 13:14:55;;;;;;;;;11.50;11.50;;;;;16.82;39.36;100636.28;4999757;28;45387;-77
2023/12/07 13:17:21;;;;;;;;;11.00;9.25;;;;;16.89;39.86;100638.41;5000246;28;45377;-76
2023/12/07 13:19:46;;;;;;;;;12.75;12.25;;;;;16.91;39.83;100622.06;5008943;28;45354;-77
2023/12/07 13:22:11;;;;;;;;;12.00;10.50;;;;;16.95;40.00;100613.59;5000132;28;46781;-77
2023/12/07 13:24:37;;;;;;;;;10.00;10.00;;;;;16.94;40.16;100610.97;4999939;28;45869;-76
2023/12/07 13:27:03;;;;;;;;;11.50;9.50;;;;;16.93;40.11;100637.19;4999885;28;45430;-76
2023/12/07 13:29:28;;;;;;;;;9.50;9.00;;;;;16.88;40.26;100647.53;4999215;28;46690;-76
2023/12/07 13:31:54;;;;;;;;;11.25;11.00;;;;;16.93;40.40;100658.88;4999521;28;47251;-76
2023/12/07 13:34:21;;;;;;;;;14.00;12.75;;;;;16.93;40.27;100656.16;4999251;28;45459;-77
2023/12/07 13:36:46;;;;;;;;;13.25;11.00;;;;;16.95;40.11;100658.75;4999499;28;45293;-77
2023/12/07 13:39:12;;;;;;;;;14.50;12.75;;;;;16.83;40.19;100633.47;4999068;28;46961;-76
2023/12/07 13:41:38;;;;;;;;;14.00;12.00;;;;;16.83;39.61;100646.13;5006986;28;47366;-78
2023/12/07 13:44:04;;;;;;;;;14.00;11.50;;;;;16.84;39.84;100608.09;4999150;28;45511;-77
2023/12/07 13:46:31;;;;;;;;;12.50;12.00;;;;;16.96;40.04;100609.91;4999384;28;45305;-77
2023/12/07 13:48:57;;;;;;;;;10.25;10.25;;;;;17.00;40.06;100584.34;4999188;28;45997;-77
2023/12/07 13:51:22;;;;;;;;;11.00;10.00;;;;;17.08;39.41;100594.59;4999179;28;47128;-76
2023/12/07 13:53:48;;;;;;;;;9.25;9.25;;;;;17.08;40.00;100585.59;4999122;28;45864;-76
2023/12/07 13:56:14;;;;;;;;;14.00;9.75;;;;;16.92;39.50;100570.50;5017828;28;45334;-76
2023/12/07 13:58:39;;;;;;;;;10.25;10.25;;;;;17.02;39.64;100571.50;5004506;28;46016;-76
2023/12/07 14:01:05;;;;;;;;;9.75;9.75;;;;;16.98;40.20;100569.16;5016661;28;45668;-78
2023/12/07 14:03:31;;;;;;;;;9.00;9.00;;;;;16.94;39.76;100541.44;4998895;28;45455;-77
2023/12/07 14:05:56;;;;;;;;;10.25;9.25;;;;;16.94;39.75;100522.47;4998459;28;45329;-76
2023/12/07 14:08:21;;;;;;;;;9.75;9.25;;;;;16.87;39.71;100540.19;4998968;28;46035;-77
2023/12/07 14:10:47;;;;;;;;;8.50;7.75;;;;;16.83;40.10;100546.81;5017099;28;45261;-75
2023/12/07 14:13:12;;;;;;;;;9.75;9.75;;;;;16.82;39.92;100538.81;4998544;28;45735;-75
2023/12/07 14:15:38;;;;;;;;;10.00;8.50;;;;;16.84;39.89;100520.63;4998520;28;45432;-76
2023/12/07 14:18:03;;;;;;;;;10.00;8.00;;;;;16.85;40.16;100531.31;4998699;28;46097;-75
2023/12/07 14:20:29;;;;;;;;;8.50;8.25;;;;;16.79;39.45;100506.53;5016566;28;45557;-76
2023/12/07 14:22:55;;;;;;;;;8.50;8.50;;;;;16.84;39.81;100516.03;4998552;28;45310;-76
2023/12/07 14:25:21;;;;;;;;;9.50;9.50;;;;;16.88;39.68;100505.84;4999188;28;45361;-75
2023/12/07 14:27:46;;;;;;;;;8.50;8.50;;;;;16.82;39.61;100509.03;5016420;28;45420;-77
2023/12/07 14:30:12;;;;;;;;;8.75;8.00;;;;;16.81;39.53;100504.59;5016546;28;46034;-75
2023/12/07 14:32:37;;;;;;;;;9.75;9.25;;;;;16.79;39.86;100493.88;4998447;28;45386;-77
2023/12/07 14:35:03;;;;;;;;;9.75;9.75;;;;;16.75;40.07;100496.94;4999006;28;45336;-75
2023/12/07 14:37:29;;;;;;;;;7.75;7.75;;;;;16.75;39.52;100518.59;4999037;28;46346;-78
2023/12/07 14:39:54;;;;;;;;;6.00;6.00;;;;;16.75;39.49;100553.78;5019189;28;46406;-76
2023/12/07 14:42:19;;;;;;;;;9.00;7.75;;;;;16.69;39.97;100554.22;5003736;28;45350;-75
2023/12/07 14:44:45;;;;;;;;;8.25;8.00;;;;;16.57;39.62;100556.84;4998818;28;45896;-75
2023/12/07 14:47:10;;;;;;;;;7.50;7.25;;;;;16.47;39.67;100525.16;4998395;28;46255;-75
2023/12/07 14:49:36;;;;;;;;;7.00;7.00;;;;;16.52;39.69;100522.97;4998394;28;46823;-76
2023/12/07 14:52:01;;;;;;;;;8.75;8.50;;;;;16.60;39.61;100513.28;4997962;28;45350;-76
2023/12/07 14:54:27;;;;;;;;;9.25;8.75;;;;;16.50;39.50;100477.06;4998646;28;45428;-77
2023/12/07 14:56:53;;;;;;;;;7.00;7.00;;;;;16.51;39.99;100467.97;4998198;28;45829;-76
2023/12/07 14:59:19;;;;;;;;;10.50;9.00;;;;;16.57;39.88;100455.84;4998796;28;48252;-76
2023/12/07 15:01:45;;;;;;;;;9.00;7.50;;;;;16.58;39.72;100461.16;4998147;28;45400;-77
2023/12/07 15:04:11;;;;;;;;;8.25;8.25;;;;;16.53;40.00;100457.03;5016800;28;45369;-76
2023/12/07 15:06:37;;;;;;;;;8.25;7.25;;;;;16.57;39.99;100480.19;4998334;28;46020;-76
2023/12/07 15:09:07;;;;;;;;;5.50;5.50;;;;;16.55;39.63;100457.78;5016550;28;46325;-75
2023/12/07 15:11:33;;;;;;;;;8.25;8.25;;;;;16.54;39.89;100462.34;4998252;28;45404;-75
2023/12/07 15:13:59;;;;;;;;;6.50;6.50;;;;;16.50;40.00;100441.06;5016694;28;45457;-76
2023/12/07 15:16:24;;;;;;;;;3.75;3.75;;;;;16.50;40.17;100441.88;5021012;28;45593;-77
2023/12/07 15:18:50;;;;;;;;;8.25;8.25;;;;;16.53;39.98;100460.59;5016282;28;46158;-77
2023/12/07 15:21:15;;;;;;;;;5.25;3.75;;;;;16.56;39.87;100495.56;5015914;28;45385;-76
2023/12/07 15:23:43;;;;;;;;;9.75;8.25;;;;;16.46;39.85;100509.91;4997907;28;45409;-75
2023/12/07 15:26:09;;;;;;;;;6.50;6.50;;;;;16.45;39.95;100497.34;4996933;28;47264;-76
2023/12/07 15:28:36;;;;;;;;;7.50;7.50;;;;;16.46;39.93;100508.06;5015334;28;45256;-77
2023/12/07 15:31:03;;;;;;;;;8.75;6.75;;;;;16.41;40.29;100502.13;4997636;28;45562;-77
2023/12/07 15:33:29;;;;;;;;;9.25;8.00;;;;;16.39;40.09;100504.06;5016262;28;45407;-76
2023/12/07 15:35:54;;;;;;;;;8.00;8.00;;;;;16.19;40.61;100545.22;4997901;28;46430;-77
2023/12/07 15:38:19;;;;;;;;;6.25;6.25;;;;;16.06;40.40;100555.22;4997620;28;48096;-77
2023/12/07 15:40:45;;;;;;;;;5.25;5.25;;;;;16.12;40.47;100546.66;5006014;28;45331;-76
2023/12/07 15:43:10;;;;;;;;;6.25;6.00;;;;;16.11;40.17;100518.75;5015702;28;45327;-75
2023/12/07 15:45:35;;;;;;;;;7.75;6.75;;;;;16.15;40.43;100514.00;4997802;28;46082;-77
2023/12/07 15:48:01;;;;;;;;;8.00;6.75;;;;;16.23;40.63;100493.53;5015497;28;45286;-76
2023/12/07 15:50:26;;;;;;;;;8.00;7.00;;;;;16.12;40.32;100463.69;5015846;28;45395;-76
2023/12/07 15:52:52;;;;;;;;;7.50;6.75;;;;;16.26;40.57;100477.03;4997889;28;45464;-75
2023/12/07 15:55:17;;;;;;;;;9.00;8.00;;;;;16.33;40.35;100458.53;5005214;28;46920;-76
2023/12/07 15:57:43;;;;;;;;;13.25;8.00;;;;;16.42;40.61;100449.72;4996860;28;47001;-77
2023/12/07 16:00:09;;;;;;;;;8.25;8.00;;;;;16.42;40.55;100430.78;5014748;28;45360;-76
2023/12/07 16:02:37;;;;;;;;;6.25;6.00;;;;;16.48;40.34;100408.69;5015271;28;45402;-76
2023/12/07 16:05:06;;;;;;;;;7.00;7.00;;;;;16.45;40.15;100411.63;5014796;28;45479;-75
2023/12/07 16:07:31;;;;;;;;;8.50;8.00;;;;;16.53;40.37;100420.00;4996789;28;48332;-74
2023/12/07 16:09:56;;;;;;;;;9.75;8.50;;;;;16.46;40.31;100412.47;4996967;28;45477;-76
2023/12/07 16:12:22;;;;;;;;;7.75;7.75;;;;;16.52;40.17;100417.41;4996829;28;45365;-75
2023/12/07 16:14:47;;;;;;;;;9.00;6.00;;;;;16.51;40.12;100421.09;4996477;28;47112;-75
2023/12/07 16:17:13;;;;;;;;;34.25;32.50;;;;;16.45;40.23;100419.72;5014854;28;46441;-76
2023/12/07 16:19:38;;;;;;;;;10.00;10.00;;;;;16.49;40.40;100417.66;4996753;28;45437;-76
2023/12/07 16:22:04;;;;;;;;;6.00;6.00;;;;;16.49;40.32;100412.25;4997001;28;45578;-75
2023/12/07 16:24:30;;;;;;;;;8.00;6.50;;;;;16.55;39.65;100412.66;4997016;28;46413;-76
2023/12/07 16:26:57;;;;;;;;;7.00;7.00;;;;;16.54;40.47;100420.88;5014504;28;45690;-77
2023/12/07 16:29:22;;;;;;;;;6.75;6.75;;;;;16.53;39.85;100433.53;4996756;28;45326;-77
2023/12/07 16:31:47;;;;;;;;;7.75;7.75;;;;;16.37;40.40;100419.44;5014795;28;45477;-77
2023/12/07 16:34:13;;;;;;;;;9.50;7.00;;;;;16.27;40.18;100416.56;4996780;28;47019;-78
2023/12/07 16:36:38;;;;;;;;;9.00;7.75;;;;;16.19;40.49;100413.56;5014636;28;45313;-76
2023/12/07 16:39:06;;;;;;;;;7.75;7.75;;;;;16.22;40.41;100390.84;5000969;28;45341;-78
2023/12/07 16:41:32;;;;;;;;;8.00;7.25;;;;;16.35;40.40;100405.16;5011276;28;45583;-75